virtualACA

Welcome To Calgary International Airport CYYC

Hub Roster

Pilot Domicile Rank
Ethan Title - ACA1641CanadaChief Pilot
Graham Dawson - ACA2317CanadaChief Pilot
Rashaido Brown - ACA3288JamaicaFirst Officer
Brian Robinson - ACA3342United StatesSecond Officer
Ken MacELmon - ACA3352CanadaNew Hire

Current Vatsim Weather


CYYC 161100Z 00000KT 15SM SKC M01/M09 A3032 RMK SLP299
Calgary International Airport